Time;durP1;ratioP1;P1;durP2;ratioP2;P2;SDS_P1;SDS_P2;PMS_P1;PMS_P2;Temp;Humidity;BMP_temperature;BMP_pressure;BME280_temperature;BME280_humidity;BME280_pressure;Samples;Min_cycle;Max_cycle;Signal;HPM_P1;HPM_P2
2022/01/15 00:00:14;;;;;;;7.45;3.30;;;6.80;99.90;;;;;;6102589;23;20029;-89
2022/01/15 00:17:04;;;;;;;7.43;3.40;;;6.80;99.90;;;;;;6188309;23;20025;-85
2022/01/15 00:19:41;;;;;;;5.38;2.50;;;6.80;99.90;;;;;;6162255;23;20013;-86
2022/01/15 00:22:12;;;;;;;;;;;6.80;99.90;;;;;;6162212;23;20086;-85
2022/01/15 00:24:38;;;;;;;19.08;3.85;;;6.80;99.90;;;;;;6187137;23;19918;-89
2022/01/15 00:27:08;;;;;;;13.87;2.53;;;6.80;99.90;;;;;;6162602;23;20024;-92
2022/01/15 00:32:16;;;;;;;44.90;3.58;;;6.80;99.90;;;;;;6127564;23;20092;-92
2022/01/15 00:34:42;;;;;;;34.33;2.93;;;6.70;99.90;;;;;;6126198;23;20444;-92
2022/01/15 00:37:07;;;;;;;21.40;2.73;;;6.70;99.90;;;;;;6125704;23;20014;-90
2022/01/15 00:39:33;;;;;;;5.00;2.10;;;6.70;99.90;;;;;;6125463;23;20025;-91
2022/01/15 00:45:46;;;;;;;10.07;2.15;;;6.70;99.90;;;;;;6127143;23;20084;-91
2022/01/15 00:48:12;;;;;;;8.32;1.98;;;6.70;99.90;;;;;;6125243;23;20018;-87
2022/01/15 00:50:37;;;;;;;8.40;2.30;;;6.60;99.90;;;;;;6125289;23;20022;-86
2022/01/15 00:53:03;;;;;;;8.87;2.83;;;6.60;99.90;;;;;;6124900;23;20452;-87
2022/01/15 00:55:29;;;;;;;7.10;2.40;;;6.60;99.90;;;;;;6125250;23;20084;-85
2022/01/15 00:57:55;;;;;;;19.02;3.60;;;6.60;99.90;;;;;;6126208;23;20016;-90
2022/01/15 01:00:22;;;;;;;22.33;2.53;;;6.60;99.90;;;;;;6124862;23;20076;-86
2022/01/15 01:02:49;;;;;;;21.38;2.00;;;6.60;99.90;;;;;;6125214;23;20022;-90
2022/01/15 01:05:15;;;;;;;16.55;2.13;;;6.50;99.90;;;;;;6125054;23;20557;-87
2022/01/15 01:07:41;;;;;;;6.57;1.70;;;6.50;99.90;;;;;;6124960;23;20069;-88
2022/01/15 01:13:13;;;;;;;3.17;1.00;;;6.50;99.90;;;;;;6126335;23;20100;-90
2022/01/15 01:23:51;;;;;;;15.93;1.75;;;6.50;99.90;;;;;;6126839;23;20093;-86
2022/01/15 01:29:13;;;;;;;10.30;2.10;;;6.50;99.90;;;;;;6126598;23;20026;-88
2022/01/15 01:31:53;;;;;;;6.50;1.17;;;6.50;99.90;;;;;;6125130;23;20057;-91
2022/01/15 01:34:19;;;;;;;13.88;1.10;;;6.40;99.90;;;;;;6126425;23;20028;-90
2022/01/15 01:39:17;;;;;;;16.67;1.40;;;6.40;99.90;;;;;;6126565;23;20460;-87
2022/01/15 01:41:52;;;;;;;18.50;1.10;;;6.40;99.90;;;;;;6100607;23;20025;-91
2022/01/15 01:57:14;;;;;;;6.28;0.88;;;6.30;99.90;;;;;;6185657;23;20021;-94
2022/01/15 02:05:26;;;;;;;12.88;1.30;;;6.30;99.90;;;;;;6186377;23;20028;-91
2022/01/15 02:07:52;;;;;;;;;;;6.20;99.90;;;;;;6161688;23;20025;-93
2022/01/15 02:10:19;;;;;;;29.20;1.70;;;6.20;99.90;;;;;;6161462;23;19962;-87
2022/01/15 02:12:48;;;;;;;15.38;1.10;;;6.20;99.90;;;;;;6160755;23;20442;-86
2022/01/15 02:15:20;;;;;;;22.50;1.40;;;6.20;99.90;;;;;;6161201;23;20017;-89
2022/01/15 02:17:52;;;;;;;33.95;2.15;;;6.30;99.90;;;;;;6188368;23;20020;-87
2022/01/15 02:20:36;;;;;;;19.35;1.65;;;6.30;99.90;;;;;;6136474;23;20017;-86
2022/01/15 02:25:55;;;;;;;27.17;1.60;;;6.20;99.90;;;;;;6160594;23;20455;-89
2022/01/15 02:28:26;;;;;;;16.05;1.40;;;6.30;99.90;;;;;;6160849;23;20032;-88
2022/01/15 02:30:54;;;;;;;20.75;1.42;;;6.30;99.90;;;;;;6161033;23;20017;-88
2022/01/15 02:33:20;;;;;;;35.53;2.28;;;6.30;99.90;;;;;;6160880;23;20451;-88
2022/01/15 02:35:46;;;;;;;54.95;3.28;;;6.30;99.90;;;;;;6160452;23;20056;-89
2022/01/15 02:38:12;;;;;;;27.00;2.13;;;6.30;99.90;;;;;;6160500;23;20354;-86
2022/01/15 02:40:39;;;;;;;29.63;2.60;;;6.20;99.90;;;;;;6161256;23;20017;-91
2022/01/15 02:43:12;;;;;;;17.05;2.00;;;6.30;99.90;;;;;;6161053;23;20438;-90
2022/01/15 02:45:42;;;;;;;12.70;1.52;;;6.20;99.90;;;;;;6161140;23;20017;-89
2022/01/15 02:48:18;;;;;;;26.52;2.17;;;6.20;99.90;;;;;;6160741;23;20013;-89
2022/01/15 02:50:45;;;;;;;27.63;1.90;;;6.30;99.90;;;;;;6160598;23;20023;-91
2022/01/15 02:53:13;;;;;;;8.02;1.20;;;6.30;99.90;;;;;;6160783;23;20028;-89
2022/01/15 02:55:43;;;;;;;3.58;1.38;;;6.30;99.90;;;;;;6185448;23;20118;-91
2022/01/15 02:58:09;;;;;;;3.28;1.30;;;6.30;99.90;;;;;;6135817;23;20019;-91
2022/01/15 03:00:36;;;;;;;27.80;1.97;;;6.30;99.90;;;;;;6160768;23;20096;-89
2022/01/15 03:03:02;;;;;;;33.65;2.65;;;6.30;99.90;;;;;;6160826;23;20084;-86
2022/01/15 03:05:28;;;;;;;40.33;2.03;;;6.30;99.90;;;;;;6160867;23;20319;-89
2022/01/15 03:07:53;;;;;;;3.27;1.00;;;6.30;99.90;;;;;;6161161;23;20362;-86
2022/01/15 03:10:19;;;;;;;6.03;1.27;;;6.30;99.90;;;;;;6160344;23;20016;-88
2022/01/15 03:12:45;;;;;;;4.53;1.37;;;6.30;99.90;;;;;;6160169;23;20328;-91
2022/01/15 03:15:17;;;;;;;3.03;1.20;;;6.20;99.90;;;;;;6160671;23;20020;-87
2022/01/15 03:17:44;;;;;;;7.70;1.50;;;6.30;99.90;;;;;;6160113;23;20021;-89
2022/01/15 03:20:12;;;;;;;2.45;1.17;;;6.30;99.90;;;;;;6160303;23;20017;-87
2022/01/15 03:22:37;;;;;;;3.80;1.35;;;6.30;99.90;;;;;;6135690;23;20334;-86
2022/01/15 03:25:03;;;;;;;4.40;1.17;;;6.30;99.90;;;;;;6160331;23;20056;-86
2022/01/15 03:27:29;;;;;;;7.03;1.73;;;6.30;99.90;;;;;;6160249;23;20059;-86
2022/01/15 03:29:55;;;;;;;3.13;1.23;;;6.30;99.90;;;;;;6135859;23;20445;-90
2022/01/15 03:32:21;;;;;;;2.67;1.37;;;6.30;99.90;;;;;;6160295;23;20013;-86
2022/01/15 03:34:47;;;;;;;3.23;1.20;;;6.30;99.90;;;;;;6159650;23;20351;-88
2022/01/15 03:37:13;;;;;;;2.95;1.08;;;6.30;99.90;;;;;;6160228;23;20454;-86
2022/01/15 03:39:40;;;;;;;3.55;1.27;;;6.30;99.90;;;;;;6160316;23;20017;-86
2022/01/15 03:42:12;;;;;;;2.97;1.20;;;6.30;99.90;;;;;;6160187;23;20025;-88
2022/01/15 03:44:42;;;;;;;2.55;1.00;;;6.30;99.90;;;;;;6185347;23;20059;-88
2022/01/15 03:47:09;;;;;;;3.03;1.10;;;6.30;99.90;;;;;;6160681;23;20025;-87
2022/01/15 03:49:36;;;;;;;8.32;1.10;;;6.20;99.90;;;;;;6161716;23;20036;-87
2022/01/15 03:52:03;;;;;;;3.47;1.08;;;6.20;99.90;;;;;;6187989;23;20083;-90
2022/01/15 03:54:28;;;;;;;;;;;6.20;99.90;;;;;;6161261;23;20106;-88
2022/01/15 03:56:54;;;;;;;3.17;1.02;;;6.20;99.90;;;;;;6186882;23;19920;-90
2022/01/15 03:59:20;;;;;;;2.30;0.90;;;6.20;99.90;;;;;;6161011;23;20024;-89
2022/01/15 04:01:46;;;;;;;4.83;1.30;;;6.20;99.90;;;;;;6160208;23;20014;-87
2022/01/15 04:04:12;;;;;;;2.90;1.20;;;6.20;99.90;;;;;;6159962;23;20468;-91
2022/01/15 04:06:38;;;;;;;3.15;1.20;;;6.20;99.90;;;;;;6186255;23;20025;-89
2022/01/15 04:09:04;;;;;;;2.83;1.10;;;6.20;99.90;;;;;;6159861;23;20083;-90
2022/01/15 04:11:30;;;;;;;2.90;1.23;;;6.20;99.90;;;;;;6186356;23;20020;-87
2022/01/15 04:13:55;;;;;;;4.67;1.50;;;6.10;99.90;;;;;;6159827;23;20100;-86
2022/01/15 04:16:21;;;;;;;7.23;1.40;;;6.10;99.90;;;;;;6159917;23;20017;-88
2022/01/15 04:18:47;;;;;;;5.17;1.23;;;6.10;99.90;;;;;;6134741;23;20023;-85
2022/01/15 04:21:14;;;;;;;5.73;1.20;;;6.10;99.90;;;;;;6186348;23;20055;-87
2022/01/15 04:23:40;;;;;;;5.07;1.20;;;6.10;99.90;;;;;;6159819;23;20584;-85
2022/01/15 04:26:06;;;;;;;3.37;0.90;;;6.10;99.90;;;;;;6159608;23;20052;-86
2022/01/15 04:28:33;;;;;;;7.77;1.00;;;6.10;99.90;;;;;;6159327;23;20040;-85
2022/01/15 04:31:07;;;;;;;2.85;0.77;;;6.20;99.90;;;;;;6159671;23;20331;-89
2022/01/15 04:33:35;;;;;;;3.05;0.70;;;6.20;99.90;;;;;;6159839;23;20280;-90
2022/01/15 04:36:01;;;;;;;4.85;0.82;;;6.20;99.90;;;;;;6185781;23;20017;-88
2022/01/15 04:38:28;;;;;;;2.25;0.50;;;6.20;99.90;;;;;;6159405;23;20342;-87
2022/01/15 04:40:54;;;;;;;4.35;0.80;;;6.20;99.90;;;;;;6160052;23;20351;-87
2022/01/15 04:43:20;;;;;;;4.03;0.67;;;6.20;99.90;;;;;;6159918;23;20017;-87
2022/01/15 04:45:46;;;;;;;3.70;0.70;;;6.20;99.90;;;;;;6159590;23;20020;-86
2022/01/15 04:48:11;;;;;;;3.43;0.70;;;6.20;99.90;;;;;;6160125;23;20048;-86
2022/01/15 04:50:37;;;;;;;3.77;0.73;;;6.20;99.90;;;;;;6159392;23;20390;-85
2022/01/15 04:53:07;;;;;;;3.47;0.80;;;6.30;99.90;;;;;;6159702;23;20091;-88
2022/01/15 04:55:33;;;;;;;4.05;0.95;;;6.20;99.90;;;;;;6159207;23;20256;-88
2022/01/15 04:57:58;;;;;;;4.17;0.60;;;6.20;99.90;;;;;;6134998;23;20066;-88
2022/01/15 05:00:24;;;;;;;5.17;1.07;;;6.20;99.90;;;;;;6159853;23;20252;-88
2022/01/15 05:02:49;;;;;;;5.10;0.83;;;6.20;99.90;;;;;;6158994;23;20517;-90
2022/01/15 05:05:15;;;;;;;3.53;0.90;;;6.20;99.90;;;;;;6159255;23;20092;-88
2022/01/15 05:07:42;;;;;;;3.27;0.90;;;6.20;99.90;;;;;;6159888;23;20032;-90
2022/01/15 05:10:10;;;;;;;3.83;0.90;;;6.20;99.90;;;;;;6159854;23;20319;-89
2022/01/15 05:12:44;;;;;;;6.57;1.25;;;6.20;99.90;;;;;;6159678;23;20017;-87
2022/01/15 05:15:12;;;;;;;5.75;1.40;;;6.20;99.90;;;;;;6159794;23;20020;-88
2022/01/15 05:17:38;;;;;;;6.93;1.33;;;6.20;99.90;;;;;;6159647;23;20024;-89
2022/01/15 05:20:05;;;;;;;4.55;1.40;;;6.20;99.90;;;;;;6159430;23;20459;-88
2022/01/15 05:22:32;;;;;;;4.80;1.42;;;6.20;99.90;;;;;;6159218;23;20056;-88
2022/01/15 05:24:58;;;;;;;9.35;1.50;;;6.20;99.90;;;;;;6159767;23;20048;-86
2022/01/15 05:27:24;;;;;;;5.47;1.47;;;6.10;99.90;;;;;;6159773;23;20050;-86
2022/01/15 05:29:49;;;;;;;4.30;1.00;;;6.20;99.90;;;;;;6158904;23;20039;-87
2022/01/15 05:32:18;;;;;;;4.00;1.30;;;6.20;99.90;;;;;;6159635;23;20017;-90
2022/01/15 05:34:45;;;;;;;4.38;1.40;;;6.20;99.90;;;;;;6159734;23;20021;-90
2022/01/15 05:37:11;;;;;;;5.38;1.13;;;6.20;99.90;;;;;;6159632;23;20017;-90
2022/01/15 05:39:36;;;;;;;5.57;0.90;;;6.10;99.90;;;;;;6160032;23;20024;-87
2022/01/15 05:42:02;;;;;;;4.60;1.20;;;6.10;99.90;;;;;;6161019;23;20020;-85
2022/01/15 05:44:28;;;;;;;4.00;1.03;;;6.10;99.90;;;;;;6160394;23;20029;-85
2022/01/15 05:46:53;;;;;;;9.20;1.20;;;6.10;99.90;;;;;;6161241;23;20256;-86
2022/01/15 05:49:19;;;;;;;4.60;0.97;;;6.10;99.90;;;;;;6161158;23;20019;-86
2022/01/15 05:51:45;;;;;;;5.73;1.03;;;6.10;99.90;;;;;;6136622;23;20013;-87
2022/01/15 05:54:11;;;;;;;3.47;0.87;;;6.10;99.90;;;;;;6136540;23;20027;-87
2022/01/15 05:56:38;;;;;;;4.53;1.00;;;6.10;99.90;;;;;;6161009;23;20464;-87
2022/01/15 05:59:04;;;;;;;3.97;1.10;;;6.10;99.90;;;;;;6161297;23;20056;-86
2022/01/15 06:01:30;;;;;;;4.35;0.90;;;6.10;99.90;;;;;;6161448;23;20024;-89
2022/01/15 06:03:57;;;;;;;8.37;1.33;;;6.10;99.90;;;;;;6161182;23;20334;-89
2022/01/15 06:06:22;;;;;;;5.20;1.10;;;6.10;99.90;;;;;;6161101;23;20451;-86
2022/01/15 06:08:48;;;;;;;5.13;1.03;;;6.00;99.90;;;;;;6160767;23;20013;-86
2022/01/15 06:11:17;;;;;;;4.50;1.23;;;6.10;99.90;;;;;;6161134;23;20100;-87
2022/01/15 06:13:47;;;;;;;6.68;1.75;;;6.10;99.90;;;;;;6160770;23;20017;-86
2022/01/15 06:16:14;;;;;;;7.90;2.05;;;6.10;99.90;;;;;;6161257;23;20017;-86
2022/01/15 06:18:40;;;;;;;;;;;6.10;99.90;;;;;;6161608;23;20017;-89
2022/01/15 06:21:06;;;;;;;8.75;2.90;;;6.10;99.90;;;;;;6161185;23;19916;-88
2022/01/15 06:23:32;;;;;;;7.57;2.97;;;6.10;99.90;;;;;;6161235;23;20044;-89
2022/01/15 06:25:57;;;;;;;12.97;3.23;;;6.10;99.90;;;;;;6160586;23;20077;-86
2022/01/15 06:28:23;;;;;;;8.17;2.90;;;6.10;99.90;;;;;;6161139;23;20013;-86
2022/01/15 06:30:49;;;;;;;7.00;2.88;;;6.10;99.90;;;;;;6136303;23;20017;-88
2022/01/15 06:33:15;;;;;;;8.20;2.97;;;6.10;99.90;;;;;;6160585;23;20354;-84
2022/01/15 06:35:41;;;;;;;8.03;2.43;;;6.10;99.90;;;;;;6161461;23;20099;-87
2022/01/15 06:38:07;;;;;;;9.05;2.45;;;6.10;99.90;;;;;;6161236;23;20096;-87
2022/01/15 06:40:45;;;;;;;8.63;2.77;;;6.10;99.90;;;;;;6163417;23;20024;-87
2022/01/15 06:43:10;;;;;;;5.53;2.08;;;6.10;99.90;;;;;;6138113;23;20023;-86
2022/01/15 06:45:36;;;;;;;6.07;2.40;;;6.10;99.90;;;;;;6188322;23;20396;-89
2022/01/15 06:48:03;;;;;;;5.53;2.40;;;6.10;99.90;;;;;;6188471;23;20021;-87
2022/01/15 06:50:29;;;;;;;5.32;2.20;;;6.10;99.90;;;;;;6160912;23;20088;-89
2022/01/15 06:52:56;;;;;;;6.70;1.95;;;6.10;99.90;;;;;;6186586;23;20521;-88
2022/01/15 06:55:22;;;;;;;7.28;2.83;;;6.10;99.90;;;;;;6187046;23;20017;-89
2022/01/15 06:58:13;;;;;;;7.18;2.30;;;6.10;99.90;;;;;;6136652;23;20142;-88
2022/01/15 07:00:58;;;;;;;7.07;1.83;;;6.10;99.90;;;;;;6141913;23;20013;-87
2022/01/15 07:03:27;;;;;;;5.32;1.77;;;6.00;99.90;;;;;;6171204;23;20059;-86
2022/01/15 07:05:53;;;;;;;7.67;2.43;;;6.00;99.90;;;;;;6167848;23;20017;-85
2022/01/15 07:08:19;;;;;;;8.67;3.30;;;6.00;99.90;;;;;;6191146;23;20017;-85
2022/01/15 07:10:49;;;;;;;7.57;2.70;;;6.10;99.90;;;;;;6170251;23;20431;-85
2022/01/15 07:13:34;;;;;;;8.95;2.47;;;6.00;99.90;;;;;;6195558;23;20044;-85
2022/01/15 07:16:00;;;;;;;6.05;1.70;;;6.00;99.90;;;;;;6169114;23;20020;-86
2022/01/15 07:18:35;;;;;;;6.75;1.83;;;6.00;99.90;;;;;;6166996;23;20068;-85
2022/01/15 07:21:00;;;;;;;7.32;1.58;;;6.00;99.90;;;;;;6166662;23;20040;-86
2022/01/15 07:23:26;;;;;;;8.93;1.70;;;5.90;99.90;;;;;;6192122;23;20017;-90
2022/01/15 07:25:52;;;;;;;6.57;1.53;;;5.90;99.90;;;;;;6190195;23;20013;-87
2022/01/15 07:28:24;;;;;;;9.20;1.87;;;5.90;99.90;;;;;;6167690;23;20021;-87
2022/01/15 07:31:10;;;;;;;7.72;2.00;;;5.90;99.90;;;;;;6165607;23;20036;-86
2022/01/15 07:38:47;;;;;;;5.53;1.70;;;5.80;99.90;;;;;;6135977;23;20447;-85
2022/01/15 07:41:13;;;;;;;7.27;2.20;;;5.80;99.90;;;;;;6136066;23;20049;-89
2022/01/15 07:43:42;;;;;;;10.52;2.50;;;5.80;99.90;;;;;;6135504;23;20017;-84
2022/01/15 07:46:08;;;;;;;7.60;2.20;;;5.80;99.90;;;;;;6136127;23;20028;-87
2022/01/15 07:48:33;;;;;;;8.17;2.37;;;5.80;99.90;;;;;;6136837;23;20014;-90
2022/01/15 07:51:01;;;;;;;7.57;2.60;;;5.90;99.90;;;;;;6137279;23;20073;-86
2022/01/15 07:53:32;;;;;;;7.82;2.75;;;5.90;99.90;;;;;;6137000;23;20040;-87
2022/01/15 07:55:59;;;;;;;11.38;2.70;;;5.90;99.90;;;;;;6134514;23;20049;-88
2022/01/15 07:58:25;;;;;;;7.67;2.37;;;5.90;99.90;;;;;;6136635;23;20096;-88
2022/01/15 08:00:52;;;;;;;7.75;2.80;;;5.90;99.90;;;;;;6136275;23;20018;-88
2022/01/15 08:03:21;;;;;;;9.77;3.10;;;5.90;99.90;;;;;;6134415;23;20077;-87
2022/01/15 08:06:40;;;;;;;8.47;3.00;;;5.90;99.90;;;;;;6130354;23;20392;-86
2022/01/15 08:09:06;;;;;;;9.82;3.72;;;5.90;99.90;;;;;;6104357;23;20025;-86
2022/01/15 08:11:32;;;;;;;7.05;2.95;;;5.90;99.90;;;;;;6128382;23;20093;-86
2022/01/15 08:13:57;;;;;;;7.20;3.20;;;6.00;99.90;;;;;;6104048;23;20444;-86
2022/01/15 08:16:23;;;;;;;6.63;2.77;;;6.00;99.90;;;;;;6129345;23;20128;-87
2022/01/15 08:18:49;;;;;;;6.53;2.93;;;6.00;99.90;;;;;;6128319;23;20343;-87
2022/01/15 08:21:55;;;;;;;7.70;3.07;;;6.00;99.90;;;;;;6129059;23;20025;-87
2022/01/15 08:25:08;;;;;;;5.60;2.50;;;6.00;99.90;;;;;;6103310;23;20017;-85
2022/01/15 08:27:33;;;;;;;6.78;2.63;;;6.00;99.90;;;;;;6125689;23;20014;-89
2022/01/15 08:29:59;;;;;;;6.90;2.43;;;6.00;99.90;;;;;;6125525;23;20352;-90
2022/01/15 08:32:25;;;;;;;7.23;2.73;;;6.00;99.90;;;;;;6126250;23;20096;-90
2022/01/15 08:34:51;;;;;;;6.27;2.47;;;6.00;99.90;;;;;;6125955;23;20017;-90
2022/01/15 08:37:16;;;;;;;5.83;2.70;;;6.00;99.90;;;;;;6125281;23;20018;-90
2022/01/15 08:40:08;;;;;;;7.53;3.37;;;6.00;99.90;;;;;;6125657;23;20348;-89
2022/01/15 08:42:35;;;;;;;6.90;3.10;;;6.00;99.90;;;;;;6124993;23;20022;-88
2022/01/15 08:45:03;;;;;;;6.65;3.30;;;6.00;99.90;;;;;;6125304;23;20448;-92
2022/01/15 08:47:29;;;;;;;8.10;2.90;;;6.00;99.90;;;;;;6101066;23;20049;-87
2022/01/15 08:49:55;;;;;;;8.60;3.40;;;6.00;99.90;;;;;;6125448;23;20025;-89
2022/01/15 08:52:21;;;;;;;9.02;3.28;;;6.00;99.90;;;;;;6125389;23;20014;-93
2022/01/15 08:54:47;;;;;;;7.00;3.13;;;6.10;99.90;;;;;;6125458;23;20040;-87
2022/01/15 08:57:13;;;;;;;7.27;2.90;;;6.10;99.90;;;;;;6124935;23;20014;-87
2022/01/15 08:59:39;;;;;;;5.43;2.60;;;6.10;99.90;;;;;;6124829;23;20018;-93
2022/01/15 09:02:05;;;;;;;5.78;2.38;;;6.10;99.90;;;;;;6149871;23;20068;-90
2022/01/15 09:04:31;;;;;;;4.83;1.97;;;6.00;99.90;;;;;;6100884;23;20022;-87
2022/01/15 09:06:57;;;;;;;4.68;1.98;;;6.00;99.90;;;;;;6100802;23;20339;-89
2022/01/15 09:09:23;;;;;;;4.50;1.80;;;6.00;99.90;;;;;;6101133;23;20018;-90
2022/01/15 09:11:49;;;;;;;6.43;2.50;;;6.00;99.90;;;;;;6100644;23;20025;-88
2022/01/15 09:14:15;;;;;;;5.07;2.50;;;6.00;99.90;;;;;;6101827;23;20053;-92
2022/01/15 09:16:40;;;;;;;5.07;2.30;;;6.00;99.90;;;;;;6102899;23;20025;-89
2022/01/15 09:19:07;;;;;;;4.83;2.33;;;6.00;99.90;;;;;;6103082;23;20117;-92
2022/01/15 09:21:33;;;;;;;5.30;2.35;;;6.00;99.90;;;;;;6079031;23;20432;-90
2022/01/15 09:23:59;;;;;;;5.95;2.35;;;6.00;99.90;;;;;;6103111;23;20017;-90
2022/01/15 09:26:59;;;;;;;4.38;2.28;;;6.00;99.90;;;;;;6128739;23;20017;-91
2022/01/15 09:31:58;;;;;;;7.90;2.88;;;6.00;99.90;;;;;;6103089;23;20018;-94
2022/01/15 09:34:25;;;;;;;6.43;2.33;;;6.00;99.90;;;;;;6128167;23;20109;-92
2022/01/15 09:36:50;;;;;;;6.75;3.25;;;6.00;99.90;;;;;;6102994;23;20475;-92
2022/01/15 09:39:19;;;;;;;5.83;2.67;;;6.00;99.90;;;;;;6129163;23;20018;-93
2022/01/15 09:41:48;;;;;;;7.13;3.17;;;6.00;99.90;;;;;;6103873;23;20026;-93
2022/01/15 09:44:15;;;;;;;6.97;2.92;;;6.00;99.90;;;;;;6128678;23;20470;-91
2022/01/15 09:46:41;;;;;;;5.60;2.75;;;6.00;99.90;;;;;;6102939;23;20040;-93
2022/01/15 09:49:10;;;;;;;5.57;2.90;;;6.00;99.90;;;;;;6102703;23;20017;-93
2022/01/15 09:51:36;;;;;;;5.35;2.40;;;6.00;99.90;;;;;;6127965;23;20451;-92
2022/01/15 09:54:02;;;;;;;5.57;2.60;;;6.10;99.90;;;;;;6102149;23;20455;-90
2022/01/15 09:56:28;;;;;;;5.47;2.38;;;6.00;99.90;;;;;;6128224;23;20309;-88
2022/01/15 09:58:56;;;;;;;6.17;2.67;;;6.00;99.90;;;;;;6102115;23;20408;-83
2022/01/15 10:01:21;;;;;;;7.38;3.25;;;6.00;99.90;;;;;;6102543;23;20029;-88
2022/01/15 10:03:47;;;;;;;7.70;3.40;;;6.00;99.90;;;;;;6102225;23;20022;-88
2022/01/15 10:06:13;;;;;;;7.93;3.40;;;6.00;99.90;;;;;;6128186;23;20013;-87
2022/01/15 10:08:38;;;;;;;8.90;4.30;;;6.00;99.90;;;;;;6102283;23;20100;-87
2022/01/15 10:11:11;;;;;;;9.73;4.57;;;6.00;99.90;;;;;;6128584;23;20024;-89
2022/01/15 10:13:44;;;;;;;10.88;5.07;;;6.00;99.90;;;;;;6102262;23;20029;-91
2022/01/15 10:16:13;;;;;;;9.18;5.00;;;6.00;99.90;;;;;;6102803;23;20045;-88
2022/01/15 10:18:44;;;;;;;8.75;4.40;;;6.00;99.90;;;;;;6128418;23;20097;-89
2022/01/15 10:21:19;;;;;;;9.45;4.88;;;6.00;99.90;;;;;;6128172;23;20455;-89
2022/01/15 10:23:48;;;;;;;9.05;4.63;;;6.00;99.90;;;;;;6128167;23;20088;-88
2022/01/15 10:26:25;;;;;;;11.73;5.28;;;6.10;99.90;;;;;;6127859;23;20452;-90
2022/01/15 10:29:03;;;;;;;11.60;5.75;;;6.10;99.90;;;;;;6127749;23;20020;-88
2022/01/15 10:31:31;;;;;;;13.18;6.40;;;6.10;99.90;;;;;;6128615;23;20022;-88
2022/01/15 10:33:59;;;;;;;11.85;5.78;;;6.10;99.90;;;;;;6080362;23;20057;-90
2022/01/15 10:36:29;;;;;;;14.95;7.20;;;6.10;99.90;;;;;;6110036;23;20018;-91
2022/01/15 10:39:15;;;;;;;13.63;7.65;;;6.10;99.90;;;;;;6135714;23;20018;-91
2022/01/15 10:41:41;;;;;;;15.13;8.07;;;6.20;99.90;;;;;;6131510;23;20045;-86
2022/01/15 10:44:28;;;;;;;16.02;7.75;;;6.20;99.90;;;;;;6114925;23;20526;-89
2022/01/15 10:47:28;;;;;;;17.75;8.68;;;6.10;99.90;;;;;;6130908;23;20010;-90
2022/01/15 10:50:02;;;;;;;18.23;9.50;;;6.10;99.90;;;;;;6091568;23;20590;-91
2022/01/15 10:52:28;;;;;;;19.33;9.43;;;6.20;99.90;;;;;;6078016;23;20022;-90
2022/01/15 10:55:10;;;;;;;19.23;10.73;;;6.10;99.90;;;;;;6102011;23;20029;-89
2022/01/15 10:57:35;;;;;;;21.52;10.52;;;6.10;99.90;;;;;;6102248;23;20436;-89
2022/01/15 11:00:12;;;;;;;18.43;9.97;;;6.10;99.90;;;;;;6119800;23;20053;-95
2022/01/15 11:03:06;;;;;;;16.77;9.00;;;6.10;99.90;;;;;;6105018;23;20021;-96
2022/01/15 11:05:44;;;;;;;15.82;8.23;;;6.10;99.90;;;;;;6128545;23;20018;-93
2022/01/15 11:08:17;;;;;;;17.55;7.95;;;6.10;99.90;;;;;;6102026;23;20022;-92
2022/01/15 11:10:54;;;;;;;18.45;8.95;;;6.10;99.90;;;;;;6078417;23;20025;-90
2022/01/15 11:13:29;;;;;;;16.15;8.93;;;6.10;99.90;;;;;;6126195;23;20017;-89
2022/01/15 11:16:00;;;;;;;17.15;7.82;;;6.10;99.90;;;;;;6101566;23;20025;-91
2022/01/15 11:18:33;;;;;;;15.43;8.25;;;6.10;99.90;;;;;;6077863;23;20018;-91
2022/01/15 11:21:02;;;;;;;14.18;7.95;;;6.10;99.90;;;;;;6125832;23;20022;-89
2022/01/15 11:23:33;;;;;;;14.40;8.20;;;6.10;99.90;;;;;;6126369;23;20462;-92
2022/01/15 11:26:01;;;;;;;14.98;7.78;;;6.10;99.90;;;;;;6126341;23;20109;-92
2022/01/15 11:28:29;;;;;;;13.60;7.50;;;6.10;99.90;;;;;;6126796;23;20021;-95
2022/01/15 11:31:05;;;;;;;13.30;7.43;;;6.10;99.90;;;;;;6126265;23;20030;-92
2022/01/15 11:33:35;;;;;;;16.50;8.13;;;6.10;99.90;;;;;;6126153;23;20029;-92
2022/01/15 11:36:03;;;;;;;15.27;7.75;;;6.10;99.90;;;;;;6126408;23;20025;-90
2022/01/15 11:38:46;;;;;;;14.88;7.95;;;6.00;99.90;;;;;;6142692;23;20021;-92
2022/01/15 11:41:27;;;;;;;16.60;8.40;;;6.00;99.90;;;;;;6133783;23;20451;-89
2022/01/15 11:44:04;;;;;;;16.30;8.45;;;6.00;99.90;;;;;;6128992;23;20032;-88
2022/01/15 11:46:41;;;;;;;14.75;7.70;;;6.00;99.90;;;;;;6130436;23;20325;-88
2022/01/15 11:49:26;;;;;;;;;;;6.00;99.90;;;;;;6133015;23;20451;-91
2022/01/15 11:52:13;;;;;;;14.52;7.53;;;6.00;99.90;;;;;;6131237;23;19922;-94
2022/01/15 11:54:49;;;;;;;17.40;9.07;;;6.10;99.90;;;;;;6153418;23;20017;-90
2022/01/15 11:57:28;;;;;;;15.48;8.70;;;6.00;99.90;;;;;;6156186;23;20043;-92
2022/01/15 11:59:58;;;;;;;16.85;8.70;;;6.00;99.90;;;;;;6156238;23;20478;-86
2022/01/15 12:02:38;;;;;;;14.82;8.98;;;6.00;99.90;;;;;;6130567;23;20018;-92
2022/01/15 12:05:19;;;;;;;16.05;8.75;;;6.00;99.90;;;;;;6131293;23;20017;-91
2022/01/15 12:08:05;;;;;;;19.02;9.75;;;5.90;99.90;;;;;;6155803;23;20021;-95
2022/01/15 12:10:49;;;;;;;17.75;9.40;;;5.90;99.90;;;;;;6154798;23;20017;-91
2022/01/15 12:13:21;;;;;;;18.38;10.07;;;6.00;99.90;;;;;;6156028;23;20022;-92
2022/01/15 12:15:48;;;;;;;20.23;10.95;;;5.90;99.90;;;;;;6155007;23;20183;-88
2022/01/15 12:18:20;;;;;;;16.95;10.02;;;5.90;99.90;;;;;;6154736;23;20017;-87
2022/01/15 12:20:47;;;;;;;20.30;11.02;;;5.90;99.90;;;;;;6154896;23;20451;-93
2022/01/15 12:23:18;;;;;;;;;;;5.90;99.90;;;;;;6130548;23;20076;-86
2022/01/15 12:25:46;;;;;;;19.55;10.65;;;5.90;99.90;;;;;;6154949;23;19920;-88
2022/01/15 12:28:14;;;;;;;20.42;11.80;;;5.90;99.90;;;;;;6154750;23;20451;-91
2022/01/15 12:30:42;;;;;;;20.80;10.75;;;5.90;99.90;;;;;;6129857;23;20014;-87
2022/01/15 12:33:13;;;;;;;19.48;11.85;;;5.90;99.90;;;;;;6154692;23;20475;-92
2022/01/15 12:35:40;;;;;;;19.17;11.02;;;5.90;99.90;;;;;;6156278;23;20053;-89
2022/01/15 12:38:12;;;;;;;17.05;10.90;;;6.00;99.90;;;;;;6154642;23;20451;-87
2022/01/15 12:40:39;;;;;;;19.98;11.55;;;6.00;99.90;;;;;;6179554;23;20029;-89
2022/01/15 12:43:09;;;;;;;;;;;6.00;99.90;;;;;;6155663;23;20044;-89
2022/01/15 12:45:36;;;;;;;19.63;11.18;;;5.90;99.90;;;;;;6156586;23;20287;-89
2022/01/15 12:48:03;;;;;;;20.13;12.10;;;5.90;99.90;;;;;;6154792;23;20104;-87
2022/01/15 12:50:40;;;;;;;20.13;12.23;;;5.90;99.90;;;;;;6155682;23;20328;-88
2022/01/15 12:53:06;;;;;;;19.48;12.13;;;5.90;99.90;;;;;;6153338;23;20075;-86
2022/01/15 12:55:36;;;;;;;21.93;12.50;;;5.90;99.90;;;;;;6154650;23;20093;-88
2022/01/15 12:58:04;;;;;;;20.92;12.93;;;5.90;99.90;;;;;;6154205;23;20362;-90
2022/01/15 13:00:32;;;;;;;21.17;12.55;;;5.90;99.90;;;;;;6153626;23;20057;-90
2022/01/15 13:03:01;;;;;;;20.50;12.20;;;5.90;99.90;;;;;;6155332;23;20021;-90
2022/01/15 13:05:30;;;;;;;20.17;12.90;;;5.80;99.90;;;;;;6154595;23;20057;-91
2022/01/15 13:08:00;;;;;;;29.52;23.52;;;5.90;99.90;;;;;;6153880;23;20017;-88
2022/01/15 13:10:46;;;;;;;21.35;12.32;;;5.90;99.90;;;;;;6153456;23;20022;-86
2022/01/15 13:13:21;;;;;;;22.10;13.45;;;5.80;99.90;;;;;;6129467;23;20021;-87
2022/01/15 13:15:47;;;;;;;24.52;14.32;;;5.80;99.90;;;;;;6129989;23;20021;-89
2022/01/15 13:18:15;;;;;;;22.08;13.50;;;5.80;99.90;;;;;;6130322;23;20028;-88
2022/01/15 13:20:41;;;;;;;22.88;13.57;;;5.80;99.90;;;;;;6129936;23;20020;-87
2022/01/15 13:23:08;;;;;;;25.10;14.13;;;5.80;99.90;;;;;;6155795;23;20021;-86
2022/01/15 13:25:35;;;;;;;24.88;15.25;;;5.80;99.90;;;;;;6131679;23;20337;-87
2022/01/15 13:28:02;;;;;;;;;;;5.80;99.90;;;;;;6130264;23;20021;-85
2022/01/15 13:30:28;;;;;;;24.88;14.68;;;5.80;99.90;;;;;;6134174;23;20009;-86
2022/01/15 13:33:05;;;;;;;28.35;15.45;;;5.70;99.90;;;;;;6156620;23;20017;-91
2022/01/15 13:35:39;;;;;;;26.08;14.95;;;5.70;99.90;;;;;;6129592;23;20028;-85
2022/01/15 13:38:12;;;;;;;27.98;16.33;;;5.70;99.90;;;;;;6129474;23;20041;-89
2022/01/15 13:40:41;;;;;;;26.73;15.75;;;5.70;99.90;;;;;;6154198;23;20021;-92
2022/01/15 13:43:11;;;;;;;27.60;15.88;;;5.70;99.90;;;;;;6154115;23;20363;-86
2022/01/15 13:45:43;;;;;;;28.20;16.67;;;5.80;99.90;;;;;;6154581;23;20021;-89
2022/01/15 13:48:15;;;;;;;26.50;16.25;;;5.80;99.90;;;;;;6154421;23;20014;-87
2022/01/15 13:53:41;;;;;;;26.52;15.65;;;5.80;99.90;;;;;;6155745;23;20529;-91
2022/01/15 13:56:16;;;;;;;26.88;15.93;;;5.70;99.90;;;;;;6130069;23;20017;-95
2022/01/15 13:58:42;;;;;;;27.52;15.20;;;5.70;99.90;;;;;;6154521;23;20057;-91
2022/01/15 14:01:35;;;;;;;25.65;15.95;;;5.70;99.90;;;;;;6155324;23;20025;-92
2022/01/15 14:04:27;;;;;;;26.10;15.85;;;5.70;99.90;;;;;;6156827;23;20021;-91
2022/01/15 14:07:05;;;;;;;25.45;15.88;;;5.60;99.90;;;;;;6157046;23;20045;-90
2022/01/15 14:09:33;;;;;;;30.02;18.70;;;5.60;99.90;;;;;;6157810;23;20128;-90
2022/01/15 14:12:11;;;;;;;25.80;15.20;;;5.60;99.90;;;;;;6157156;23;20022;-92
2022/01/15 14:15:03;;;;;;;26.40;15.75;;;5.60;99.90;;;;;;6157021;23;20024;-86